createdAt,value
2023-04-23T00:00:59.328Z,387.00
2023-04-23T00:01:59.427Z,386.00
2023-04-23T00:02:59.450Z,385.00
2023-04-23T00:03:59.502Z,385.00
2023-04-23T00:04:59.483Z,386.00
2023-04-23T00:05:59.447Z,387.00
2023-04-23T00:06:59.451Z,388.00
2023-04-23T00:07:59.496Z,389.00
2023-04-23T00:08:59.518Z,390.00
2023-04-23T00:09:59.549Z,388.00
2023-04-23T00:10:59.623Z,388.00
2023-04-23T00:11:59.621Z,388.00
2023-04-23T00:12:59.629Z,388.00
2023-04-23T00:13:59.671Z,388.00
2023-04-23T00:14:59.702Z,387.00
2023-04-23T00:15:59.785Z,387.00
2023-04-23T00:16:59.771Z,387.00
2023-04-23T00:17:59.846Z,387.00
2023-04-23T00:18:59.796Z,388.00
2023-04-23T00:19:59.893Z,387.00
2023-04-23T00:20:59.892Z,387.00
2023-04-23T00:21:59.969Z,389.00
2023-04-23T00:22:59.956Z,388.00
2023-04-23T00:24:00.036Z,387.00
2023-04-23T00:25:00.054Z,385.00
2023-04-23T00:26:00.090Z,384.00
2023-04-23T00:27:00.166Z,385.00
2023-04-23T00:28:00.161Z,387.00
2023-04-23T00:29:00.192Z,387.00
2023-04-23T00:30:00.222Z,388.00
2023-04-23T00:31:00.260Z,387.00
2023-04-23T00:32:00.359Z,389.00
2023-04-23T00:33:00.379Z,388.00
2023-04-23T00:34:00.388Z,387.00
2023-04-23T00:35:00.427Z,388.00
2023-04-23T00:36:00.504Z,386.00
2023-04-23T00:37:00.565Z,385.00
2023-04-23T00:38:00.555Z,386.00
2023-04-23T00:39:00.587Z,386.00
2023-04-23T00:40:00.658Z,387.00
2023-04-23T00:41:00.713Z,389.00
2023-04-23T00:42:00.745Z,392.00
2023-04-23T00:43:00.765Z,391.00
2023-04-23T00:44:00.781Z,392.00
2023-04-23T00:45:00.929Z,390.00
2023-04-23T00:46:00.961Z,390.00
2023-04-23T00:47:00.987Z,388.00
2023-04-23T00:48:01.036Z,386.00
2023-04-23T00:49:01.030Z,387.00
2023-04-23T00:50:01.107Z,388.00
2023-04-23T00:51:01.152Z,386.00
2023-04-23T00:52:01.236Z,386.00
2023-04-23T00:53:01.294Z,389.00
2023-04-23T00:54:01.360Z,391.00
2023-04-23T00:55:01.306Z,390.00
2023-04-23T00:56:01.351Z,391.00
2023-04-23T00:57:01.393Z,394.00
2023-04-23T00:58:01.551Z,395.00
2023-04-23T00:59:01.477Z,395.00
2023-04-23T01:00:01.551Z,396.00
2023-04-23T01:01:01.625Z,396.00
2023-04-23T01:02:01.656Z,395.00
2023-04-23T01:03:01.816Z,392.00
2023-04-23T01:04:01.982Z,393.00
2023-04-23T01:05:01.866Z,393.00
2023-04-23T01:06:01.964Z,392.00
2023-04-23T01:07:01.907Z,391.00
2023-04-23T01:08:02.150Z,389.00
2023-04-23T01:09:02.019Z,388.00
2023-04-23T01:10:02.080Z,389.00
2023-04-23T01:11:02.106Z,390.00
2023-04-23T01:12:02.184Z,391.00
2023-04-23T01:13:02.199Z,391.00
2023-04-23T01:14:02.308Z,390.00
2023-04-23T01:15:02.306Z,391.00
2023-04-23T01:16:02.339Z,392.00
2023-04-23T01:17:02.477Z,390.00
2023-04-23T01:18:02.399Z,392.00
2023-04-23T01:19:02.445Z,392.00
2023-04-23T01:20:02.487Z,390.00
2023-04-23T01:21:02.552Z,390.00
2023-04-23T01:22:02.618Z,389.00
2023-04-23T01:23:02.629Z,388.00
2023-04-23T01:24:02.690Z,387.00
2023-04-23T01:25:02.746Z,387.00
2023-04-23T01:26:02.800Z,388.00
2023-04-23T01:27:02.829Z,389.00
2023-04-23T01:28:02.890Z,389.00
2023-04-23T01:29:02.947Z,389.00
2023-04-23T01:30:03.034Z,390.00
2023-04-23T01:31:03.106Z,389.00
2023-04-23T01:32:03.064Z,389.00
2023-04-23T01:33:03.137Z,390.00
2023-04-23T01:34:03.216Z,390.00
2023-04-23T01:35:03.219Z,390.00
2023-04-23T01:36:03.342Z,392.00
2023-04-23T01:37:03.377Z,393.00
2023-04-23T01:38:03.388Z,393.00
2023-04-23T01:39:03.462Z,392.00
2023-04-23T01:40:03.520Z,390.00
2023-04-23T01:41:03.545Z,390.00
2023-04-23T01:42:03.611Z,390.00
2023-04-23T01:43:03.673Z,391.00
2023-04-23T01:44:03.762Z,390.00
2023-04-23T01:45:03.742Z,390.00
2023-04-23T01:46:03.884Z,389.00
2023-04-23T01:47:06.357Z,387.00
2023-04-23T01:48:03.880Z,389.00
2023-04-23T01:49:03.854Z,389.00
2023-04-23T01:50:04.010Z,389.00
2023-04-23T01:51:03.818Z,387.00
2023-04-23T01:52:03.859Z,387.00
2023-04-23T01:53:03.847Z,390.00
2023-04-23T01:54:03.809Z,391.00
2023-04-23T01:55:03.822Z,391.00
2023-04-23T01:56:03.816Z,391.00
2023-04-23T01:57:03.836Z,393.00
2023-04-23T01:58:03.824Z,394.00
2023-04-23T01:59:03.790Z,393.00
2023-04-23T02:00:03.760Z,393.00
2023-04-23T02:01:03.727Z,394.00
2023-04-23T02:02:03.889Z,395.00
2023-04-23T02:03:03.958Z,396.00
2023-04-23T02:04:03.897Z,396.00
2023-04-23T02:05:03.734Z,397.00
2023-04-23T02:06:03.700Z,399.00
2023-04-23T02:07:03.737Z,398.00
2023-04-23T02:08:03.784Z,396.00
2023-04-23T02:09:03.754Z,397.00
2023-04-23T02:10:03.691Z,399.00
2023-04-23T02:11:03.698Z,400.00
2023-04-23T02:12:03.715Z,401.00
2023-04-23T02:13:03.722Z,400.00
2023-04-23T02:14:03.690Z,401.00
2023-04-23T02:15:03.685Z,401.00
2023-04-23T02:16:03.747Z,401.00
2023-04-23T02:17:03.670Z,401.00
2023-04-23T02:18:03.643Z,405.00
2023-04-23T02:19:03.653Z,405.00
2023-04-23T02:20:03.615Z,405.00
2023-04-23T02:21:03.627Z,405.00
2023-04-23T02:22:03.645Z,402.00
2023-04-23T02:23:03.681Z,400.00
2023-04-23T02:24:03.792Z,399.00
2023-04-23T02:25:03.806Z,397.00
2023-04-23T02:26:03.878Z,394.00
2023-04-23T02:27:03.946Z,391.00
2023-04-23T02:28:04.018Z,392.00
2023-04-23T02:29:04.102Z,392.00
2023-04-23T02:30:04.103Z,393.00
2023-04-23T02:31:04.183Z,393.00
2023-04-23T02:32:04.284Z,394.00
2023-04-23T02:33:04.325Z,394.00
2023-04-23T02:34:04.372Z,394.00
2023-04-23T02:35:04.443Z,396.00
2023-04-23T02:36:04.483Z,396.00
2023-04-23T02:37:04.558Z,397.00
2023-04-23T02:38:04.613Z,396.00
2023-04-23T02:39:04.640Z,397.00
2023-04-23T02:40:04.723Z,399.00
2023-04-23T02:41:04.835Z,401.00
2023-04-23T02:42:04.893Z,399.00
2023-04-23T02:43:04.971Z,399.00
2023-04-23T02:44:05.017Z,398.00
2023-04-23T02:45:05.015Z,396.00
2023-04-23T02:46:05.086Z,397.00
2023-04-23T02:47:05.270Z,399.00
2023-04-23T02:48:05.268Z,397.00
2023-04-23T02:49:05.294Z,398.00
2023-04-23T02:50:05.318Z,398.00
2023-04-23T02:51:05.409Z,398.00
2023-04-23T02:52:05.468Z,400.00
2023-04-23T02:53:05.518Z,401.00
2023-04-23T02:54:05.689Z,399.00
2023-04-23T02:55:05.706Z,401.00
2023-04-23T02:56:05.753Z,401.00
2023-04-23T02:57:05.799Z,401.00
2023-04-23T02:58:05.866Z,399.00
2023-04-23T02:59:05.910Z,400.00
2023-04-23T03:00:05.980Z,402.00
2023-04-23T03:01:06.068Z,400.00
2023-04-23T03:02:06.146Z,401.00
2023-04-23T03:03:06.243Z,401.00
2023-04-23T03:04:06.400Z,399.00
2023-04-23T03:05:06.271Z,398.00
2023-04-23T03:06:06.274Z,397.00
2023-04-23T03:07:06.393Z,397.00
2023-04-23T03:08:06.452Z,396.00
2023-04-23T03:09:06.490Z,399.00
2023-04-23T03:10:06.549Z,398.00
2023-04-23T03:11:06.562Z,400.00
2023-04-23T03:12:06.623Z,401.00
2023-04-23T03:13:06.714Z,398.00
2023-04-23T03:14:06.714Z,398.00
2023-04-23T03:15:06.754Z,397.00
2023-04-23T03:16:06.757Z,396.00
2023-04-23T03:17:06.824Z,395.00
2023-04-23T03:18:06.850Z,393.00
2023-04-23T03:19:06.832Z,395.00
2023-04-23T03:20:06.896Z,397.00
2023-04-23T03:21:06.869Z,395.00
2023-04-23T03:22:06.918Z,396.00
2023-04-23T03:23:06.960Z,395.00
2023-04-23T03:24:06.969Z,397.00
2023-04-23T03:25:06.957Z,399.00
2023-04-23T03:26:06.966Z,399.00
2023-04-23T03:27:06.980Z,397.00
2023-04-23T03:28:06.983Z,400.00
2023-04-23T03:29:07.033Z,401.00
2023-04-23T03:30:06.995Z,401.00
2023-04-23T03:31:06.994Z,401.00
2023-04-23T03:32:06.946Z,402.00
2023-04-23T03:33:07.024Z,404.00
2023-04-23T03:34:06.988Z,403.00
2023-04-23T03:35:06.926Z,401.00
2023-04-23T03:36:06.956Z,399.00
2023-04-23T03:37:06.945Z,400.00
2023-04-23T03:38:06.914Z,401.00
2023-04-23T03:39:06.959Z,401.00
2023-04-23T03:40:06.967Z,402.00
2023-04-23T03:41:06.981Z,403.00
2023-04-23T03:42:06.943Z,403.00
2023-04-23T03:43:06.924Z,400.00
2023-04-23T03:44:07.312Z,399.00
2023-04-23T03:45:06.959Z,400.00
2023-04-23T03:46:07.050Z,398.00
2023-04-23T03:47:06.909Z,397.00
2023-04-23T03:48:06.907Z,396.00
2023-04-23T03:49:06.943Z,398.00
2023-04-23T03:50:06.964Z,396.00
2023-04-23T03:51:06.899Z,396.00
2023-04-23T03:52:06.914Z,397.00
2023-04-23T03:53:06.913Z,399.00
2023-04-23T03:54:06.958Z,402.00
2023-04-23T03:55:06.941Z,401.00
2023-04-23T03:56:06.934Z,399.00
2023-04-23T03:57:06.920Z,398.00
2023-04-23T03:58:06.912Z,399.00
2023-04-23T03:59:07.011Z,400.00
2023-04-23T04:00:06.912Z,399.00
2023-04-23T04:01:06.865Z,398.00
2023-04-23T04:02:07.015Z,400.00
2023-04-23T04:03:07.215Z,399.00
2023-04-23T04:04:07.142Z,399.00
2023-04-23T04:05:07.215Z,400.00
2023-04-23T04:06:06.902Z,401.00
2023-04-23T04:07:06.904Z,402.00
2023-04-23T04:08:06.842Z,403.00
2023-04-23T04:09:06.852Z,404.00
2023-04-23T04:10:06.829Z,404.00
2023-04-23T04:11:06.829Z,400.00
2023-04-23T04:12:06.874Z,400.00
2023-04-23T04:13:06.835Z,399.00
2023-04-23T04:14:06.816Z,402.00
2023-04-23T04:15:06.823Z,407.00
2023-04-23T04:16:06.875Z,408.00
2023-04-23T04:17:06.852Z,407.00
2023-04-23T04:18:06.841Z,407.00
2023-04-23T04:19:06.885Z,406.00
2023-04-23T04:20:06.825Z,405.00
2023-04-23T04:21:06.866Z,404.00
2023-04-23T04:22:06.858Z,404.00
2023-04-23T04:23:06.844Z,402.00
2023-04-23T04:24:06.857Z,402.00
2023-04-23T04:25:06.862Z,402.00
2023-04-23T04:26:06.872Z,402.00
2023-04-23T04:27:06.850Z,402.00
2023-04-23T04:28:06.838Z,405.00
2023-04-23T04:29:06.886Z,405.00
2023-04-23T04:30:06.829Z,406.00
2023-04-23T04:31:06.915Z,407.00
2023-04-23T04:32:06.823Z,408.00
2023-04-23T04:33:06.914Z,407.00
2023-04-23T04:34:06.835Z,408.00
2023-04-23T04:35:06.844Z,410.00
2023-04-23T04:36:06.842Z,411.00
2023-04-23T04:37:06.846Z,409.00
2023-04-23T04:38:06.848Z,410.00
2023-04-23T04:39:06.847Z,409.00
2023-04-23T04:40:06.822Z,410.00
2023-04-23T04:41:06.869Z,412.00
2023-04-23T04:42:06.817Z,413.00
2023-04-23T04:43:06.875Z,415.00
2023-04-23T04:44:06.892Z,416.00
2023-04-23T04:45:06.856Z,416.00
2023-04-23T04:46:07.761Z,414.00
2023-04-23T04:47:06.932Z,414.00
2023-04-23T04:48:06.844Z,414.00
2023-04-23T04:49:06.863Z,413.00
2023-04-23T04:50:06.826Z,409.00
2023-04-23T04:51:06.827Z,410.00
2023-04-23T04:52:06.845Z,407.00
2023-04-23T04:53:06.846Z,406.00
2023-04-23T04:54:06.848Z,405.00
2023-04-23T04:55:06.920Z,407.00
2023-04-23T04:56:06.859Z,406.00
2023-04-23T04:57:06.831Z,407.00
2023-04-23T04:58:06.795Z,407.00
2023-04-23T04:59:06.805Z,409.00
2023-04-23T05:00:06.792Z,410.00
2023-04-23T05:01:06.825Z,410.00
2023-04-23T05:02:06.895Z,408.00
2023-04-23T05:03:06.961Z,407.00
2023-04-23T05:04:07.039Z,406.00
2023-04-23T05:05:06.948Z,405.00
2023-04-23T05:06:06.828Z,406.00
2023-04-23T05:07:06.839Z,407.00
2023-04-23T05:08:06.785Z,407.00
2023-04-23T05:09:06.793Z,406.00
2023-04-23T05:10:06.830Z,407.00
2023-04-23T05:11:06.791Z,407.00
2023-04-23T05:12:06.810Z,408.00
2023-04-23T05:13:06.833Z,408.00
2023-04-23T05:14:06.840Z,407.00
2023-04-23T05:15:06.849Z,405.00
2023-04-23T05:16:06.845Z,404.00
2023-04-23T05:17:06.794Z,404.00
2023-04-23T05:18:06.829Z,404.00
2023-04-23T05:19:06.809Z,402.00
2023-04-23T05:20:06.833Z,402.00
2023-04-23T05:21:06.832Z,404.00
2023-04-23T05:22:06.841Z,403.00
2023-04-23T05:23:06.846Z,404.00
2023-04-23T05:24:06.824Z,404.00
2023-04-23T05:25:06.848Z,404.00
2023-04-23T05:26:06.867Z,404.00
2023-04-23T05:27:06.842Z,406.00
2023-04-23T05:28:06.870Z,406.00
2023-04-23T05:29:06.914Z,407.00
2023-04-23T05:30:06.885Z,408.00
2023-04-23T05:31:06.896Z,408.00
2023-04-23T05:32:06.962Z,405.00
2023-04-23T05:33:07.024Z,404.00
2023-04-23T05:34:07.370Z,402.00
2023-04-23T05:35:06.938Z,403.00
2023-04-23T05:36:06.928Z,404.00
2023-04-23T05:37:06.956Z,402.00
2023-04-23T05:38:06.937Z,402.00
2023-04-23T05:39:07.007Z,401.00
2023-04-23T05:40:07.021Z,401.00
2023-04-23T05:41:07.012Z,403.00
2023-04-23T05:42:06.990Z,402.00
2023-04-23T05:43:06.963Z,401.00
2023-04-23T05:44:06.990Z,402.00
2023-04-23T05:45:08.526Z,402.00
2023-04-23T05:46:07.188Z,403.00
2023-04-23T05:47:07.000Z,405.00
2023-04-23T05:48:06.949Z,406.00
2023-04-23T05:49:07.032Z,409.00
2023-04-23T05:50:07.024Z,412.00
2023-04-23T05:51:06.990Z,410.00
2023-04-23T05:52:07.037Z,410.00
2023-04-23T05:53:07.082Z,409.00
2023-04-23T05:54:06.982Z,407.00
2023-04-23T05:55:07.045Z,407.00
2023-04-23T05:56:06.976Z,408.00
2023-04-23T05:57:06.991Z,406.00
2023-04-23T05:58:07.017Z,405.00
2023-04-23T05:59:07.018Z,405.00
2023-04-23T06:00:07.040Z,402.00
2023-04-23T06:01:07.054Z,402.00
2023-04-23T06:02:07.059Z,404.00
2023-04-23T06:03:07.145Z,402.00
2023-04-23T06:04:07.249Z,404.00
2023-04-23T06:05:07.166Z,403.00
2023-04-23T06:06:07.014Z,402.00
2023-04-23T06:07:07.036Z,401.00
2023-04-23T06:08:06.979Z,403.00
2023-04-23T06:09:07.000Z,401.00
2023-04-23T06:10:07.047Z,400.00
2023-04-23T06:11:06.998Z,398.00
2023-04-23T06:12:07.010Z,399.00
2023-04-23T06:13:07.019Z,402.00
2023-04-23T06:14:06.961Z,401.00
2023-04-23T06:15:06.976Z,402.00
2023-04-23T06:16:07.034Z,405.00
2023-04-23T06:17:06.984Z,406.00
2023-04-23T06:18:07.123Z,408.00
2023-04-23T06:19:07.006Z,408.00
2023-04-23T06:20:06.952Z,410.00
2023-04-23T06:21:07.045Z,409.00
2023-04-23T06:22:06.961Z,409.00
2023-04-23T06:23:06.966Z,408.00
2023-04-23T06:24:06.975Z,407.00
2023-04-23T06:25:06.992Z,408.00
2023-04-23T06:26:07.000Z,406.00
2023-04-23T06:27:06.990Z,405.00
2023-04-23T06:28:07.089Z,405.00
2023-04-23T06:29:07.012Z,407.00
2023-04-23T06:30:07.025Z,406.00
2023-04-23T06:31:07.052Z,405.00
2023-04-23T06:32:07.032Z,405.00
2023-04-23T06:33:07.091Z,406.00
2023-04-23T06:34:07.123Z,408.00
2023-04-23T06:35:07.434Z,407.00
2023-04-23T06:36:07.124Z,408.00
2023-04-23T06:37:07.150Z,409.00
2023-04-23T06:38:07.232Z,408.00
2023-04-23T06:39:07.280Z,410.00
2023-04-23T06:40:07.278Z,411.00
2023-04-23T06:41:07.359Z,409.00
2023-04-23T06:42:07.409Z,407.00
2023-04-23T06:43:07.457Z,406.00
2023-04-23T06:44:07.482Z,407.00
2023-04-23T06:45:07.527Z,407.00
2023-04-23T06:46:07.613Z,407.00
2023-04-23T06:47:07.717Z,408.00
2023-04-23T06:48:07.736Z,412.00
2023-04-23T06:49:07.706Z,412.00
2023-04-23T06:50:07.786Z,411.00
2023-04-23T06:51:07.851Z,412.00
2023-04-23T06:52:07.868Z,412.00
2023-04-23T06:53:07.960Z,414.00
2023-04-23T06:54:08.003Z,414.00
2023-04-23T06:55:08.078Z,415.00
2023-04-23T06:56:08.091Z,414.00
2023-04-23T06:57:08.211Z,413.00
2023-04-23T06:58:08.128Z,412.00
2023-04-23T06:59:08.131Z,408.00
2023-04-23T07:00:08.099Z,408.00
2023-04-23T07:01:08.130Z,409.00
2023-04-23T07:02:08.163Z,409.00
2023-04-23T07:03:08.217Z,407.00
2023-04-23T07:04:08.205Z,406.00
2023-04-23T07:05:08.139Z,406.00
2023-04-23T07:06:08.151Z,403.00
2023-04-23T07:07:08.143Z,406.00
2023-04-23T07:08:08.162Z,406.00
2023-04-23T07:09:08.160Z,405.00
2023-04-23T07:10:08.172Z,406.00
2023-04-23T07:11:08.225Z,406.00
2023-04-23T07:12:08.301Z,407.00
2023-04-23T07:13:08.296Z,408.00
2023-04-23T07:14:08.313Z,407.00
2023-04-23T07:15:08.344Z,408.00
2023-04-23T07:16:08.473Z,407.00
2023-04-23T07:17:08.482Z,405.00
2023-04-23T07:18:08.451Z,405.00
2023-04-23T07:19:08.563Z,406.00
2023-04-23T07:20:08.591Z,405.00
2023-04-23T07:21:08.671Z,404.00
2023-04-23T07:22:08.722Z,404.00
2023-04-23T07:23:08.772Z,403.00
2023-04-23T07:24:08.840Z,404.00
2023-04-23T07:25:08.952Z,405.00
2023-04-23T07:26:08.947Z,405.00
2023-04-23T07:27:09.005Z,407.00
2023-04-23T07:28:09.074Z,408.00
2023-04-23T07:29:09.131Z,408.00
2023-04-23T07:30:09.267Z,405.00
2023-04-23T07:31:09.251Z,403.00
2023-04-23T07:32:09.353Z,401.00
2023-04-23T07:33:09.460Z,403.00
2023-04-23T07:34:09.413Z,401.00
2023-04-23T07:35:09.486Z,400.00
2023-04-23T07:36:09.530Z,401.00
2023-04-23T07:37:09.560Z,401.00
2023-04-23T07:38:09.707Z,400.00
2023-04-23T07:39:09.660Z,402.00
2023-04-23T07:40:09.724Z,404.00
2023-04-23T07:41:09.774Z,404.00
2023-04-23T07:42:09.837Z,406.00
2023-04-23T07:43:09.882Z,408.00
2023-04-23T07:44:09.949Z,410.00
2023-04-23T07:45:09.963Z,409.00
2023-04-23T07:46:10.049Z,408.00
2023-04-23T07:47:10.071Z,408.00
2023-04-23T07:48:10.127Z,409.00
2023-04-23T07:49:10.130Z,410.00
2023-04-23T07:50:10.210Z,409.00
2023-04-23T07:51:10.241Z,408.00
2023-04-23T07:52:10.247Z,410.00
2023-04-23T07:53:10.324Z,408.00
2023-04-23T07:54:10.373Z,407.00
2023-04-23T07:55:10.388Z,409.00
2023-04-23T07:56:10.509Z,408.00
2023-04-23T07:57:10.441Z,405.00
2023-04-23T07:58:10.502Z,402.00
2023-04-23T07:59:10.577Z,402.00
2023-04-23T08:00:10.615Z,402.00
2023-04-23T08:01:10.740Z,402.00
2023-04-23T08:02:10.723Z,402.00
2023-04-23T08:03:10.808Z,402.00
2023-04-23T08:04:10.947Z,402.00
2023-04-23T08:05:11.007Z,402.00
2023-04-23T08:06:10.824Z,401.00
2023-04-23T08:07:10.828Z,401.00
2023-04-23T08:08:10.822Z,399.00
2023-04-23T08:09:10.881Z,399.00
2023-04-23T08:10:10.907Z,398.00
2023-04-23T08:11:10.893Z,399.00
2023-04-23T08:12:10.945Z,399.00
2023-04-23T08:13:11.004Z,399.00
2023-04-23T08:14:10.973Z,400.00
2023-04-23T08:15:11.054Z,398.00
2023-04-23T08:16:11.042Z,396.00
2023-04-23T08:17:11.022Z,396.00
2023-04-23T08:18:11.030Z,395.00
2023-04-23T08:19:11.045Z,394.00
2023-04-23T08:20:11.044Z,394.00
2023-04-23T08:21:11.113Z,394.00
2023-04-23T08:22:11.110Z,392.00
2023-04-23T08:23:11.072Z,394.00
2023-04-23T08:24:11.091Z,395.00
2023-04-23T08:25:11.160Z,396.00
2023-04-23T08:26:11.101Z,395.00
2023-04-23T08:27:11.124Z,396.00
2023-04-23T08:28:11.165Z,397.00
2023-04-23T08:29:11.672Z,397.00
2023-04-23T08:30:11.229Z,395.00
2023-04-23T08:31:22.788Z,395.00
2023-04-23T08:32:12.198Z,395.00
2023-04-23T08:33:11.143Z,396.00
2023-04-23T08:34:11.141Z,395.00
2023-04-23T08:35:11.113Z,394.00
2023-04-23T08:36:11.108Z,395.00
2023-04-23T08:37:16.736Z,393.00
2023-04-23T08:38:12.288Z,392.00
2023-04-23T08:39:11.097Z,390.00
2023-04-23T08:40:11.096Z,390.00
2023-04-23T08:41:11.082Z,388.00
2023-04-23T08:42:11.207Z,387.00
2023-04-23T08:43:11.068Z,387.00
2023-04-23T08:44:11.066Z,385.00
2023-04-23T08:45:11.033Z,387.00
2023-04-23T08:46:11.056Z,387.00
2023-04-23T08:47:11.026Z,387.00
2023-04-23T08:48:11.035Z,388.00
2023-04-23T08:49:11.062Z,389.00
2023-04-23T08:50:11.030Z,389.00
2023-04-23T08:51:11.005Z,389.00
2023-04-23T08:52:11.037Z,389.00
2023-04-23T08:53:10.975Z,389.00
2023-04-23T08:54:11.038Z,388.00
2023-04-23T08:55:11.054Z,387.00
2023-04-23T08:56:10.987Z,387.00
2023-04-23T08:57:10.944Z,385.00
2023-04-23T08:58:11.006Z,384.00
2023-04-23T08:59:10.977Z,383.00
2023-04-23T09:00:10.959Z,382.00
2023-04-23T09:01:11.030Z,384.00
2023-04-23T09:02:11.051Z,385.00
2023-04-23T09:03:11.220Z,387.00
2023-04-23T09:04:10.938Z,388.00
2023-04-23T09:05:10.902Z,388.00
2023-04-23T09:06:10.904Z,388.00
2023-04-23T09:07:10.917Z,387.00
2023-04-23T09:08:10.909Z,387.00
2023-04-23T09:09:10.877Z,388.00
2023-04-23T09:10:10.874Z,387.00
2023-04-23T09:11:10.893Z,387.00
2023-04-23T09:12:10.900Z,384.00
2023-04-23T09:13:10.944Z,385.00
2023-04-23T09:14:10.956Z,385.00
2023-04-23T09:15:11.058Z,386.00
2023-04-23T09:16:11.113Z,388.00
2023-04-23T09:17:11.124Z,386.00
2023-04-23T09:18:11.355Z,384.00
2023-04-23T09:19:11.264Z,383.00
2023-04-23T09:20:11.344Z,384.00
2023-04-23T09:21:11.354Z,384.00
2023-04-23T09:22:11.934Z,385.00
2023-04-23T09:23:11.488Z,383.00
2023-04-23T09:24:11.560Z,382.00
2023-04-23T09:25:11.603Z,382.00
2023-04-23T09:26:11.774Z,380.00
2023-04-23T09:27:11.700Z,379.00
2023-04-23T09:28:11.729Z,379.00
2023-04-23T09:29:11.785Z,381.00
2023-04-23T09:30:11.832Z,381.00
2023-04-23T09:31:11.897Z,380.00
2023-04-23T09:32:12.055Z,381.00
2023-04-23T09:33:12.068Z,381.00
2023-04-23T09:34:12.129Z,384.00
2023-04-23T09:35:12.187Z,383.00
2023-04-23T09:36:12.193Z,383.00
2023-04-23T09:37:12.301Z,382.00
2023-04-23T09:38:12.336Z,380.00
2023-04-23T09:39:12.409Z,381.00
2023-04-23T09:40:12.434Z,381.00
2023-04-23T09:41:12.511Z,381.00
2023-04-23T09:42:12.598Z,379.00
2023-04-23T09:43:12.603Z,378.00
2023-04-23T09:44:12.648Z,378.00
2023-04-23T09:45:12.722Z,377.00
2023-04-23T09:46:12.829Z,377.00
2023-04-23T09:47:12.771Z,378.00
2023-04-23T09:48:12.843Z,380.00
2023-04-23T09:49:12.884Z,379.00
2023-04-23T09:50:12.949Z,378.00
2023-04-23T09:51:12.983Z,378.00
2023-04-23T09:52:13.056Z,377.00
2023-04-23T09:53:13.077Z,376.00
2023-04-23T09:54:13.111Z,377.00
2023-04-23T09:55:13.195Z,377.00
2023-04-23T09:56:13.197Z,377.00
2023-04-23T09:57:13.238Z,374.00
2023-04-23T09:58:13.286Z,374.00
2023-04-23T09:59:13.425Z,377.00
2023-04-23T10:00:14.729Z,376.00
2023-04-23T10:01:15.942Z,374.00
2023-04-23T10:02:13.840Z,373.00
2023-04-23T10:03:13.769Z,373.00
2023-04-23T10:04:13.798Z,372.00
2023-04-23T10:05:23.511Z,372.00
2023-04-23T10:06:25.532Z,371.00
2023-04-23T10:07:18.929Z,372.00
2023-04-23T10:08:14.679Z,374.00
2023-04-23T10:09:13.686Z,374.00
2023-04-23T10:10:13.637Z,373.00
2023-04-23T10:11:20.706Z,373.00
2023-04-23T10:13:13.614Z,372.00
2023-04-23T10:14:13.667Z,371.00
2023-04-23T10:15:13.618Z,368.00
2023-04-23T10:16:22.467Z,366.00
2023-04-23T10:17:14.624Z,365.00
2023-04-23T10:18:13.578Z,366.00
2023-04-23T10:19:13.591Z,365.00
2023-04-23T10:20:13.599Z,365.00
2023-04-23T10:21:13.563Z,365.00
2023-04-23T10:23:13.588Z,363.00
2023-04-23T10:24:13.593Z,364.00
2023-04-23T10:25:13.608Z,367.00
2023-04-23T10:26:13.547Z,368.00
2023-04-23T10:27:23.905Z,365.00
2023-04-23T10:28:14.495Z,365.00
2023-04-23T10:29:13.550Z,361.00
2023-04-23T10:30:13.529Z,362.00
2023-04-23T10:31:13.498Z,362.00
2023-04-23T10:32:13.491Z,360.00
2023-04-23T10:33:26.536Z,362.00
2023-04-23T10:34:14.510Z,364.00
2023-04-23T10:35:13.505Z,366.00
2023-04-23T10:36:13.458Z,369.00
2023-04-23T10:37:13.426Z,367.00
2023-04-23T10:38:13.467Z,368.00
2023-04-23T10:39:15.797Z,369.00
2023-04-23T10:40:14.624Z,369.00
2023-04-23T10:41:13.421Z,368.00
2023-04-23T10:42:13.491Z,367.00
2023-04-23T10:43:13.438Z,367.00
2023-04-23T10:44:15.319Z,368.00
2023-04-23T10:45:23.340Z,369.00
2023-04-23T10:46:14.453Z,369.00
2023-04-23T10:47:13.389Z,370.00
2023-04-23T10:48:13.382Z,369.00
2023-04-23T10:49:13.387Z,367.00
2023-04-23T10:50:13.389Z,369.00
2023-04-23T10:52:18.523Z,373.00
2023-04-23T10:53:14.402Z,371.00
2023-04-23T10:54:13.414Z,372.00
2023-04-23T10:55:13.320Z,372.00
2023-04-23T10:56:13.384Z,372.00
2023-04-23T10:57:13.333Z,371.00
2023-04-23T10:58:13.342Z,369.00
2023-04-23T10:59:13.313Z,369.00
2023-04-23T11:00:13.314Z,371.00
2023-04-23T11:01:13.325Z,373.00
2023-04-23T11:02:13.437Z,373.00
2023-04-23T11:03:13.340Z,373.00
2023-04-23T11:04:13.499Z,370.00
2023-04-23T11:05:13.272Z,370.00
2023-04-23T11:06:13.262Z,368.00
2023-04-23T11:07:13.262Z,367.00
2023-04-23T11:08:19.531Z,366.00
2023-04-23T11:09:14.245Z,364.00
2023-04-23T11:10:13.238Z,363.00
2023-04-23T11:11:13.237Z,364.00
2023-04-23T11:12:13.199Z,365.00
2023-04-23T11:13:13.230Z,364.00
2023-04-23T11:14:13.209Z,363.00
2023-04-23T11:15:13.278Z,363.00
2023-04-23T11:16:13.241Z,362.00
2023-04-23T11:17:13.229Z,363.00
2023-04-23T11:18:13.173Z,364.00
2023-04-23T11:19:13.184Z,365.00
2023-04-23T11:20:13.262Z,366.00
2023-04-23T11:21:13.194Z,366.00
2023-04-23T11:22:13.171Z,366.00
2023-04-23T11:23:13.170Z,367.00
2023-04-23T11:24:13.181Z,367.00
2023-04-23T11:25:13.185Z,367.00
2023-04-23T11:26:13.124Z,369.00
2023-04-23T11:27:13.132Z,369.00
2023-04-23T11:28:13.153Z,367.00
2023-04-23T11:29:13.111Z,366.00
2023-04-23T11:30:13.159Z,367.00
2023-04-23T11:31:13.122Z,367.00
2023-04-23T11:32:13.283Z,366.00
2023-04-23T11:33:13.074Z,368.00
2023-04-23T11:34:13.083Z,367.00
2023-04-23T11:35:13.832Z,367.00
2023-04-23T11:36:13.049Z,367.00
2023-04-23T11:37:13.108Z,366.00
2023-04-23T11:38:13.105Z,363.00
2023-04-23T11:39:13.086Z,364.00
2023-04-23T11:40:13.083Z,361.00
2023-04-23T11:41:13.024Z,359.00
2023-04-23T11:42:13.098Z,360.00
2023-04-23T11:43:13.030Z,359.00
2023-04-23T11:44:13.036Z,359.00
2023-04-23T11:45:13.013Z,359.00
2023-04-23T11:46:13.078Z,357.00
2023-04-23T11:47:13.046Z,356.00
2023-04-23T11:48:13.024Z,356.00
2023-04-23T11:49:12.984Z,354.00
2023-04-23T11:50:13.000Z,356.00
2023-04-23T11:51:12.945Z,356.00
2023-04-23T11:52:13.012Z,358.00
2023-04-23T11:53:12.969Z,358.00
2023-04-23T11:54:13.017Z,359.00
2023-04-23T11:55:13.027Z,361.00
2023-04-23T11:56:13.087Z,361.00
2023-04-23T11:57:13.550Z,359.00
2023-04-23T11:58:13.109Z,357.00
2023-04-23T11:59:13.141Z,358.00
2023-04-23T12:00:13.156Z,358.00
2023-04-23T12:01:13.218Z,359.00
2023-04-23T12:02:13.366Z,359.00
2023-04-23T12:03:13.411Z,360.00
2023-04-23T12:04:13.704Z,361.00
2023-04-23T12:05:13.539Z,360.00
2023-04-23T12:06:13.481Z,360.00
2023-04-23T12:07:25.834Z,360.00
2023-04-23T12:08:14.540Z,360.00
2023-04-23T12:09:13.516Z,359.00
2023-04-23T12:10:14.833Z,358.00
2023-04-23T12:11:13.597Z,358.00
2023-04-23T12:12:13.646Z,359.00
2023-04-23T12:13:13.704Z,361.00
2023-04-23T12:14:13.750Z,361.00
2023-04-23T12:15:13.834Z,360.00
2023-04-23T12:16:13.908Z,360.00
2023-04-23T12:17:13.990Z,360.00
2023-04-23T12:18:14.033Z,360.00
2023-04-23T12:19:14.113Z,361.00
2023-04-23T12:20:14.181Z,361.00
2023-04-23T12:21:14.224Z,364.00
2023-04-23T12:22:14.253Z,363.00
2023-04-23T12:23:14.347Z,364.00
2023-04-23T12:24:14.351Z,363.00
2023-04-23T12:25:14.408Z,362.00
2023-04-23T12:26:14.490Z,361.00
2023-04-23T12:27:14.522Z,363.00
2023-04-23T12:28:14.577Z,364.00
2023-04-23T12:29:14.568Z,364.00
2023-04-23T12:30:14.659Z,363.00
2023-04-23T12:31:14.672Z,364.00
2023-04-23T12:32:14.707Z,363.00